createdAt,value
2019-04-06T00:02:27.381Z,57.67
2019-04-06T00:04:57.010Z,60.93
2019-04-06T00:07:26.630Z,51.13
2019-04-06T00:09:56.200Z,56.43
2019-04-06T00:12:25.856Z,54.63
2019-04-06T00:14:55.433Z,60.13
2019-04-06T00:17:25.297Z,58.03
2019-04-06T00:19:54.877Z,59.80
2019-04-06T00:22:24.535Z,55.47
2019-04-06T00:24:54.179Z,58.17
2019-04-06T00:27:24.692Z,57.23
2019-04-06T00:29:54.400Z,62.97
2019-04-06T00:32:25.617Z,55.27
2019-04-06T00:34:55.301Z,55.97
2019-04-06T00:37:24.861Z,59.60
2019-04-06T00:39:54.498Z,59.43
2019-04-06T00:42:24.197Z,61.77
2019-04-06T00:44:54.028Z,60.63
2019-04-06T00:47:23.645Z,66.97
2019-04-06T00:49:53.317Z,60.23
2019-04-06T00:52:22.895Z,59.43
2019-04-06T00:54:52.509Z,60.03
2019-04-06T00:57:22.081Z,52.87
2019-04-06T00:59:51.749Z,59.13
2019-04-06T01:02:21.523Z,55.77
2019-04-06T01:04:51.177Z,56.40
2019-04-06T01:07:23.066Z,55.27
2019-04-06T01:09:52.200Z,54.50
2019-04-06T01:12:21.822Z,60.20
2019-04-06T01:14:51.495Z,58.70
2019-04-06T01:17:21.384Z,54.83
2019-04-06T01:19:52.611Z,56.97
2019-04-06T01:22:22.223Z,61.57
2019-04-06T01:24:51.796Z,60.80
2019-04-06T01:27:21.497Z,54.87
2019-04-06T01:29:52.961Z,57.63
2019-04-06T01:32:22.606Z,57.83
2019-04-06T01:34:52.351Z,56.07
2019-04-06T01:37:21.916Z,60.97
2019-04-06T01:39:51.518Z,56.63
2019-04-06T01:42:21.284Z,53.63
2019-04-06T01:44:50.921Z,57.87
2019-04-06T01:47:20.770Z,56.03
2019-04-06T01:49:50.336Z,55.50
2019-04-06T01:52:20.208Z,57.60
2019-04-06T01:54:49.795Z,55.17
2019-04-06T01:57:19.385Z,55.33
2019-04-06T01:59:48.947Z,55.80
2019-04-06T02:02:20.201Z,62.07
2019-04-06T02:04:49.790Z,64.07
2019-04-06T02:07:19.399Z,58.03
2019-04-06T02:09:49.108Z,55.30
2019-04-06T02:12:18.680Z,63.07
2019-04-06T02:14:48.244Z,61.70
2019-04-06T02:17:17.884Z,60.90
2019-04-06T02:19:47.570Z,57.20
2019-04-06T02:22:19.675Z,63.23
2019-04-06T02:24:49.229Z,62.83
2019-04-06T02:27:18.783Z,60.23
2019-04-06T02:29:52.048Z,64.87
2019-04-06T02:32:25.489Z,67.57
2019-04-06T02:34:56.701Z,70.10
2019-04-06T02:37:31.481Z,68.67
2019-04-06T02:40:02.741Z,66.27
2019-04-06T02:42:50.440Z,60.53
2019-04-06T02:45:20.273Z,73.37
2019-04-06T02:47:49.916Z,70.90
2019-04-06T02:50:19.519Z,67.47
2019-04-06T02:52:49.109Z,69.60
2019-04-06T02:55:18.682Z,64.10
2019-04-06T02:57:48.432Z,67.97
2019-04-06T03:00:18.321Z,71.70
2019-04-06T03:02:47.884Z,75.03
2019-04-06T03:05:17.475Z,68.60
2019-04-06T03:07:47.041Z,66.87
2019-04-06T03:10:16.809Z,71.00
2019-04-06T03:12:46.388Z,64.90
2019-04-06T03:15:15.949Z,73.20
2019-04-06T03:17:45.596Z,64.70
2019-04-06T03:20:15.237Z,67.30
2019-04-06T03:22:44.788Z,73.87
2019-04-06T03:25:14.711Z,63.10
2019-04-06T03:27:44.271Z,64.97
2019-04-06T03:30:14.094Z,61.40
2019-04-06T03:32:43.676Z,64.40
2019-04-06T03:35:13.362Z,68.97
2019-04-06T03:37:42.932Z,62.60
2019-04-06T03:40:12.629Z,60.80
2019-04-06T03:42:42.191Z,62.10
2019-04-06T03:45:12.000Z,60.53
2019-04-06T03:47:41.660Z,65.43
2019-04-06T03:50:11.461Z,59.33
2019-04-06T03:52:41.021Z,63.50
2019-04-06T03:55:10.796Z,58.00
2019-04-06T03:57:40.364Z,61.20
2019-04-06T04:00:10.548Z,62.87
2019-04-06T04:02:40.055Z,61.63
2019-04-06T04:05:09.744Z,61.53
2019-04-06T04:07:39.351Z,58.23
2019-04-06T04:10:09.415Z,58.83
2019-04-06T04:12:39.031Z,53.50
2019-04-06T04:15:08.904Z,64.90
2019-04-06T04:17:38.476Z,60.07
2019-04-06T04:20:08.730Z,55.07
2019-04-06T04:22:38.460Z,52.83
2019-04-06T04:25:08.142Z,53.90
2019-04-06T04:27:39.663Z,54.63
2019-04-06T04:30:09.892Z,51.90
2019-04-06T04:32:39.614Z,54.80
2019-04-06T04:35:09.210Z,50.70
2019-04-06T04:37:38.804Z,53.90
2019-04-06T04:40:08.589Z,54.57
2019-04-06T04:42:38.115Z,54.70
2019-04-06T04:45:07.978Z,54.20
2019-04-06T04:47:37.493Z,57.97
2019-04-06T04:50:08.294Z,55.47
2019-04-06T04:52:37.887Z,55.80
2019-04-06T04:55:08.269Z,56.87
2019-04-06T04:57:40.858Z,52.70
2019-04-06T05:00:09.206Z,51.07
2019-04-06T05:02:38.772Z,54.63
2019-04-06T05:05:09.621Z,53.07
2019-04-06T05:07:39.646Z,52.57
2019-04-06T05:10:10.098Z,56.97
2019-04-06T05:12:39.998Z,56.53
2019-04-06T05:15:22.815Z,53.67
2019-04-06T05:17:52.702Z,55.17
2019-04-06T05:20:23.946Z,51.03
2019-04-06T05:22:53.621Z,53.67
2019-04-06T05:25:23.235Z,54.73
2019-04-06T05:27:53.165Z,52.77
2019-04-06T05:30:23.020Z,48.20
2019-04-06T05:32:52.658Z,53.80
2019-04-06T05:35:22.187Z,52.57
2019-04-06T05:37:51.800Z,54.70
2019-04-06T05:40:21.333Z,54.90
2019-04-06T05:42:50.889Z,56.60
2019-04-06T05:45:20.463Z,52.57
2019-04-06T05:47:49.979Z,58.17
2019-04-06T05:50:19.725Z,56.00
2019-04-06T05:52:49.320Z,50.10
2019-04-06T05:55:19.460Z,53.87
2019-04-06T05:57:48.996Z,54.03
2019-04-06T06:00:18.595Z,52.67
2019-04-06T06:02:48.145Z,52.73
2019-04-06T06:05:17.712Z,54.17
2019-04-06T06:07:47.285Z,55.43
2019-04-06T06:10:17.031Z,56.43
2019-04-06T06:12:46.630Z,63.97
2019-04-06T06:15:16.347Z,54.20
2019-04-06T06:17:46.451Z,58.27
2019-04-06T06:22:42.912Z,52.77
2019-04-06T06:25:13.073Z,55.50
2019-04-06T06:27:42.703Z,53.10
2019-04-06T06:30:12.703Z,55.63
2019-04-06T06:32:42.534Z,55.77
2019-04-06T06:35:12.152Z,58.57
2019-04-06T06:37:41.981Z,55.20
2019-04-06T06:40:11.744Z,57.07
2019-04-06T06:42:41.443Z,57.97
2019-04-06T06:45:11.518Z,52.17
2019-04-06T06:47:41.068Z,51.77
2019-04-06T06:50:11.266Z,52.10
2019-04-06T06:52:40.817Z,56.13
2019-04-06T06:55:10.531Z,53.83
2019-04-06T06:57:40.066Z,57.33
2019-04-06T07:00:10.128Z,49.13
2019-04-06T07:02:40.151Z,51.43
2019-04-06T07:05:10.011Z,50.00
2019-04-06T07:07:39.548Z,56.90
2019-04-06T07:10:09.695Z,59.13
2019-04-06T07:12:39.370Z,52.40
2019-04-06T07:15:09.245Z,56.33
2019-04-06T07:17:38.804Z,52.67
2019-04-06T07:20:08.978Z,55.97
2019-04-06T07:22:38.721Z,57.07
2019-04-06T07:25:08.840Z,57.13
2019-04-06T07:27:38.394Z,52.30
2019-04-06T07:30:09.142Z,55.07
2019-04-06T07:32:38.785Z,51.43
2019-04-06T07:35:08.521Z,55.60
2019-04-06T07:37:38.076Z,51.13
2019-04-06T07:40:09.790Z,52.47
2019-04-06T07:42:39.385Z,53.47
2019-04-06T07:45:10.159Z,54.27
2019-04-06T07:47:39.696Z,55.70
2019-04-06T07:50:11.233Z,55.73
2019-04-06T07:52:41.038Z,52.63
2019-04-06T07:55:10.905Z,53.83
2019-04-06T07:57:40.803Z,49.37
2019-04-06T08:00:11.218Z,51.87
2019-04-06T08:02:40.744Z,53.03
2019-04-06T08:05:10.358Z,55.43
2019-04-06T08:07:39.920Z,56.70
2019-04-06T08:10:10.347Z,51.13
2019-04-06T08:12:40.104Z,50.93
2019-04-06T08:15:12.159Z,56.07
2019-04-06T08:17:41.746Z,50.97
2019-04-06T08:20:12.008Z,51.53
2019-04-06T08:22:41.661Z,47.20
2019-04-06T08:25:11.517Z,51.07
2019-04-06T08:27:41.168Z,52.13
2019-04-06T08:30:11.594Z,55.13
2019-04-06T08:32:41.147Z,48.93
2019-04-06T08:35:12.331Z,52.53
2019-04-06T08:37:42.118Z,54.13
2019-04-06T08:40:11.937Z,46.37
2019-04-06T08:42:41.532Z,50.67
2019-04-06T08:45:13.677Z,49.33
2019-04-06T08:47:42.976Z,49.73
2019-04-06T08:50:13.601Z,46.93
2019-04-06T08:52:43.296Z,50.37
2019-04-06T08:55:13.626Z,49.67
2019-04-06T08:57:43.795Z,51.33
2019-04-06T09:00:14.164Z,46.43
2019-04-06T09:02:43.722Z,54.17
2019-04-06T09:05:14.043Z,52.57
2019-04-06T09:07:44.065Z,49.33
2019-04-06T09:10:14.257Z,50.53
2019-04-06T09:12:43.922Z,54.57
2019-04-06T09:15:15.526Z,52.87
2019-04-06T09:17:45.467Z,47.33
2019-04-06T09:20:17.064Z,51.67
2019-04-06T09:22:47.080Z,51.57
2019-04-06T09:25:17.158Z,50.50
2019-04-06T09:27:47.540Z,48.27
2019-04-06T09:30:17.997Z,49.67
2019-04-06T09:32:48.236Z,51.50
2019-04-06T09:35:18.467Z,46.77
2019-04-06T09:37:48.081Z,50.73
2019-04-06T09:40:17.721Z,50.30
2019-04-06T09:42:47.280Z,51.80
2019-04-06T09:45:27.348Z,52.70
2019-04-06T09:47:58.519Z,49.50
2019-04-06T09:50:41.509Z,49.93
2019-04-06T09:53:28.881Z,49.77
2019-04-06T09:55:58.278Z,49.07
2019-04-06T09:58:29.519Z,48.60
2019-04-06T10:00:58.852Z,56.07
2019-04-06T10:03:32.740Z,48.60
2019-04-06T10:06:20.319Z,49.23
2019-04-06T10:09:08.149Z,50.93
2019-04-06T10:11:39.335Z,47.17
2019-04-06T10:14:17.315Z,48.07
2019-04-06T10:16:54.382Z,47.90
2019-04-06T10:19:25.562Z,42.93
2019-04-06T10:21:56.767Z,43.40
2019-04-06T10:24:30.742Z,43.80
2019-04-06T10:27:01.882Z,43.87
2019-04-06T10:29:49.594Z,43.30
2019-04-06T10:32:28.689Z,41.13
2019-04-06T10:35:11.616Z,48.20
2019-04-06T10:37:42.847Z,45.27
2019-04-06T10:40:14.187Z,42.60
2019-04-06T10:42:50.410Z,36.13
2019-04-06T10:45:21.780Z,40.87
2019-04-06T10:47:51.308Z,39.10
2019-04-06T10:50:23.636Z,38.80
2019-04-06T10:53:06.632Z,38.63
2019-04-06T10:55:40.567Z,33.77
2019-04-06T10:58:12.107Z,38.43
2019-04-06T11:00:43.465Z,37.63
2019-04-06T11:03:17.244Z,37.53
2019-04-06T11:06:04.709Z,35.80
2019-04-06T11:08:50.815Z,36.30
2019-04-06T11:11:22.090Z,34.83
2019-04-06T11:13:53.272Z,37.73
2019-04-06T11:16:33.794Z,41.20
2019-04-06T11:19:09.004Z,45.63
2019-04-06T11:21:40.382Z,43.53
2019-04-06T11:24:21.497Z,46.40
2019-04-06T11:26:58.803Z,43.87
2019-04-06T11:29:46.122Z,48.30
2019-04-06T11:32:15.711Z,41.80
2019-04-06T11:34:50.919Z,44.77
2019-04-06T11:37:22.966Z,46.20
2019-04-06T11:39:54.717Z,47.57
2019-04-06T11:42:28.707Z,42.47
2019-04-06T11:45:06.475Z,40.40
2019-04-06T11:47:54.604Z,46.03
2019-04-06T11:50:42.021Z,45.40
2019-04-06T11:53:22.047Z,42.70
2019-04-06T11:56:11.451Z,43.67
2019-04-06T11:58:51.653Z,47.47
2019-04-06T12:01:22.830Z,47.87
2019-04-06T12:03:58.999Z,49.37
2019-04-06T12:06:30.340Z,45.97
2019-04-06T12:09:07.365Z,44.17
2019-04-06T12:11:55.238Z,46.37
2019-04-06T12:14:29.582Z,46.27
2019-04-06T12:17:17.538Z,44.50
2019-04-06T12:19:51.406Z,46.17
2019-04-06T12:22:22.606Z,44.53
2019-04-06T12:25:10.320Z,45.70
2019-04-06T12:27:56.586Z,45.80
2019-04-06T12:30:37.686Z,43.67
2019-04-06T12:33:08.834Z,48.37
2019-04-06T12:35:53.273Z,47.40
2019-04-06T12:38:41.173Z,44.80
2019-04-06T12:41:21.708Z,46.97
2019-04-06T12:44:09.804Z,43.23
2019-04-06T12:46:39.567Z,44.30
2019-04-06T12:49:25.674Z,46.27
2019-04-06T12:51:57.224Z,53.80
2019-04-06T12:54:29.483Z,47.70
2019-04-06T12:57:16.774Z,44.60
2019-04-06T12:59:53.731Z,40.70
2019-04-06T13:02:24.933Z,43.13
2019-04-06T13:05:05.148Z,43.53
2019-04-06T13:07:38.065Z,56.33
2019-04-06T13:10:10.397Z,42.67
2019-04-06T13:12:55.148Z,44.70
2019-04-06T13:15:24.812Z,43.67
2019-04-06T13:18:00.442Z,43.90
2019-04-06T13:20:43.819Z,44.73
2019-04-06T13:23:13.249Z,44.27
2019-04-06T13:25:51.919Z,44.93
2019-04-06T13:28:21.279Z,45.00
2019-04-06T13:31:02.664Z,45.43
2019-04-06T13:33:30.656Z,48.73
2019-04-06T13:36:17.684Z,46.63
2019-04-06T13:38:49.023Z,46.57
2019-04-06T13:41:32.052Z,45.67
2019-04-06T13:44:15.291Z,47.67
2019-04-06T13:46:48.963Z,42.50
2019-04-06T13:49:38.585Z,42.77
2019-04-06T13:52:12.970Z,44.13
2019-04-06T13:55:00.841Z,44.73
2019-04-06T13:57:34.692Z,41.10
2019-04-06T14:00:16.819Z,39.17
2019-04-06T14:03:04.183Z,42.97
2019-04-06T14:05:50.706Z,44.90
2019-04-06T14:08:42.659Z,43.07
2019-04-06T14:11:27.593Z,42.83
2019-04-06T14:14:01.619Z,44.40
2019-04-06T14:16:50.925Z,40.33
2019-04-06T14:19:22.748Z,41.60
2019-04-06T14:21:54.222Z,44.57
2019-04-06T14:24:40.157Z,42.90
2019-04-06T14:27:17.639Z,41.87
2019-04-06T14:30:07.307Z,42.07
2019-04-06T14:32:54.682Z,43.77
2019-04-06T14:35:32.333Z,42.87
2019-04-06T14:38:03.686Z,43.70
2019-04-06T14:40:51.341Z,42.10
2019-04-06T14:43:26.759Z,40.43
2019-04-06T14:45:56.141Z,40.47
2019-04-06T14:48:27.771Z,40.73
2019-04-06T14:51:09.497Z,43.03
2019-04-06T14:53:40.682Z,40.70
2019-04-06T14:56:14.784Z,38.97
2019-04-06T14:58:49.946Z,40.03
2019-04-06T15:01:37.021Z,38.37
2019-04-06T15:04:16.621Z,40.73
2019-04-06T15:06:50.643Z,37.93
2019-04-06T15:09:39.943Z,39.27
2019-04-06T15:12:23.303Z,37.90
2019-04-06T15:15:10.546Z,37.33
2019-04-06T15:17:56.853Z,37.13
2019-04-06T15:20:28.229Z,37.17
2019-04-06T15:22:59.408Z,37.77
2019-04-06T15:25:42.740Z,37.47
2019-04-06T15:28:14.328Z,39.30
2019-04-06T15:30:45.537Z,38.03
2019-04-06T15:33:28.843Z,35.10
2019-04-06T15:36:16.321Z,41.00
2019-04-06T15:38:59.265Z,34.57
2019-04-06T15:41:55.329Z,37.50
2019-04-06T15:44:19.455Z,35.63
2019-04-06T15:46:53.346Z,35.20
2019-04-06T15:49:22.970Z,39.50
2019-04-06T15:51:53.023Z,36.27
2019-04-06T15:54:39.877Z,39.63
2019-04-06T15:57:11.289Z,41.30
2019-04-06T15:59:58.582Z,34.93
2019-04-06T16:02:37.142Z,34.33
2019-04-06T16:05:16.701Z,36.97
2019-04-06T16:08:03.775Z,33.43
2019-04-06T16:10:48.148Z,35.80
2019-04-06T16:13:28.165Z,35.57
2019-04-06T16:16:05.191Z,35.43
2019-04-06T16:18:53.635Z,32.97
2019-04-06T16:21:43.071Z,35.20
2019-04-06T16:24:20.317Z,35.70
2019-04-06T16:26:54.009Z,34.70
2019-04-06T16:29:25.222Z,32.90
2019-04-06T16:31:56.454Z,34.27
2019-04-06T16:34:36.865Z,33.80
2019-04-06T16:37:13.669Z,32.83
2019-04-06T16:39:57.436Z,34.97
2019-04-06T16:42:34.657Z,35.27
2019-04-06T16:45:25.935Z,35.90
2019-04-06T16:48:15.371Z,34.00
2019-04-06T16:51:02.984Z,33.40
2019-04-06T16:53:50.492Z,34.03
2019-04-06T16:56:29.977Z,34.00
2019-04-06T16:59:01.248Z,34.07
2019-04-06T17:01:35.276Z,33.63
2019-04-06T17:04:12.498Z,34.23
2019-04-06T17:06:55.714Z,34.33
2019-04-06T17:09:26.925Z,33.13
2019-04-06T17:12:13.017Z,36.33
2019-04-06T17:14:50.263Z,32.73
2019-04-06T17:17:22.045Z,32.40
2019-04-06T17:19:54.335Z,33.37
2019-04-06T17:22:28.565Z,33.07
2019-04-06T17:25:14.632Z,47.50
2019-04-06T17:27:55.533Z,44.30
2019-04-06T17:30:29.121Z,40.30
2019-04-06T17:33:06.288Z,47.77
2019-04-06T17:35:37.662Z,46.83
2019-04-06T17:38:25.230Z,57.33
2019-04-06T17:40:57.272Z,50.27
2019-04-06T17:43:40.601Z,39.20
2019-04-06T17:46:17.530Z,41.03
2019-04-06T17:48:48.747Z,38.07
2019-04-06T17:51:35.151Z,38.77
2019-04-06T17:54:15.124Z,43.97
2019-04-06T17:56:55.043Z,41.00
2019-04-06T17:59:28.884Z,43.60
2019-04-06T18:02:16.033Z,42.17
2019-04-06T18:05:03.671Z,41.57
2019-04-06T18:07:51.182Z,84.83
2019-04-06T18:10:24.842Z,116.53
2019-04-06T18:13:01.918Z,68.23
2019-04-06T18:15:31.826Z,65.40
2019-04-06T18:18:01.403Z,53.27
2019-04-06T18:20:31.054Z,60.50
2019-04-06T18:23:00.916Z,54.57
2019-04-06T18:25:30.520Z,54.67
2019-04-06T18:28:00.570Z,51.33
2019-04-06T18:30:30.500Z,43.17
2019-04-06T18:33:03.157Z,39.50
2019-04-06T18:35:32.972Z,37.17
2019-04-06T18:38:04.708Z,39.37
2019-04-06T18:40:34.444Z,38.10
2019-04-06T18:43:04.192Z,37.10
2019-04-06T18:45:34.022Z,32.33
2019-04-06T18:48:03.528Z,35.10
2019-04-06T18:50:36.805Z,34.17
2019-04-06T18:53:04.721Z,37.37
2019-04-06T18:55:34.253Z,34.77
2019-04-06T18:58:12.233Z,31.03
2019-04-06T19:00:35.710Z,37.00
2019-04-06T19:03:14.070Z,34.17
2019-04-06T19:05:36.876Z,39.60
2019-04-06T19:08:06.904Z,36.87
2019-04-06T19:10:36.580Z,34.27
2019-04-06T19:13:07.070Z,37.03
2019-04-06T19:15:36.907Z,37.80
2019-04-06T19:18:06.536Z,40.63
2019-04-06T19:20:36.149Z,39.57
2019-04-06T19:23:05.795Z,37.37
2019-04-06T19:25:35.483Z,36.80
2019-04-06T19:28:05.455Z,35.90
2019-04-06T19:30:35.169Z,44.40
2019-04-06T19:33:05.651Z,39.87
2019-04-06T19:35:35.213Z,37.60
2019-04-06T19:38:05.064Z,41.00
2019-04-06T19:40:34.593Z,41.03
2019-04-06T19:43:04.478Z,38.27
2019-04-06T19:45:34.146Z,37.27
2019-04-06T19:48:04.211Z,40.20
2019-04-06T19:50:34.031Z,43.43
2019-04-06T19:53:03.901Z,37.13
2019-04-06T19:55:33.559Z,39.97
2019-04-06T19:58:03.125Z,38.43
2019-04-06T20:00:32.862Z,39.30
2019-04-06T20:03:02.415Z,39.80
2019-04-06T20:05:31.989Z,36.23
2019-04-06T20:08:01.535Z,37.70
2019-04-06T20:10:31.192Z,36.07
2019-04-06T20:13:00.860Z,36.70
2019-04-06T20:15:30.909Z,42.47
2019-04-06T20:18:04.435Z,41.97
2019-04-06T20:20:34.215Z,38.43
2019-04-06T20:23:03.891Z,43.87
2019-04-06T20:25:34.513Z,42.17
2019-04-06T20:28:05.545Z,38.57
2019-04-06T20:30:35.090Z,37.53
2019-04-06T20:33:04.635Z,39.60
2019-04-06T20:35:34.179Z,41.03
2019-04-06T20:38:03.949Z,41.23
2019-04-06T20:40:33.557Z,41.03
2019-04-06T20:43:03.117Z,39.70
2019-04-06T20:45:32.648Z,39.43
2019-04-06T20:48:02.895Z,38.97
2019-04-06T20:50:33.119Z,40.33
2019-04-06T20:53:02.813Z,41.93
2019-04-06T20:55:32.353Z,40.23
2019-04-06T20:58:01.906Z,39.73
2019-04-06T21:00:32.316Z,39.60
2019-04-06T21:03:04.371Z,39.80
2019-04-06T21:05:33.641Z,41.83
2019-04-06T21:08:03.197Z,38.33
2019-04-06T21:10:32.830Z,35.63
2019-04-06T21:13:02.405Z,41.50
2019-04-06T21:15:32.078Z,43.37
2019-04-06T21:18:01.782Z,44.97
2019-04-06T21:20:31.485Z,41.00
2019-04-06T21:23:01.592Z,39.47
2019-04-06T21:25:31.117Z,41.50
2019-04-06T21:28:01.088Z,38.20
2019-04-06T21:30:31.314Z,40.10
2019-04-06T21:33:01.237Z,43.27
2019-04-06T21:35:31.721Z,42.60
2019-04-06T21:38:02.053Z,40.63
2019-04-06T21:40:31.737Z,42.87
2019-04-06T21:43:01.611Z,41.53
2019-04-06T21:45:31.570Z,40.10
2019-04-06T21:48:01.684Z,41.97
2019-04-06T21:50:31.980Z,42.93
2019-04-06T21:53:01.610Z,43.17
2019-04-06T21:55:31.275Z,46.23
2019-04-06T21:58:00.804Z,43.30
2019-04-06T22:00:33.311Z,44.20
2019-04-06T22:03:03.009Z,40.57
2019-04-06T22:05:32.996Z,44.37
2019-04-06T22:08:02.717Z,40.47
2019-04-06T22:10:32.341Z,39.40
2019-04-06T22:13:01.921Z,43.77
2019-04-06T22:15:31.538Z,41.43
2019-04-06T22:18:01.216Z,43.73
2019-04-06T22:20:30.891Z,42.60
2019-04-06T22:23:00.480Z,41.40
2019-04-06T22:25:30.048Z,39.63
2019-04-06T22:27:59.607Z,41.97
2019-04-06T22:30:29.262Z,40.80
2019-04-06T22:32:58.822Z,43.23
2019-04-06T22:35:29.483Z,45.10
2019-04-06T22:37:59.076Z,40.87
2019-04-06T22:40:29.071Z,39.47
2019-04-06T22:42:58.861Z,38.07
2019-04-06T22:45:30.115Z,41.23
2019-04-06T22:47:59.717Z,38.20
2019-04-06T22:50:29.377Z,39.67
2019-04-06T22:52:59.462Z,38.60
2019-04-06T22:55:29.780Z,40.67
2019-04-06T22:57:59.808Z,41.13
2019-04-06T23:00:31.444Z,37.63
2019-04-06T23:03:06.162Z,39.27
2019-04-06T23:05:35.763Z,37.70
2019-04-06T23:08:06.607Z,37.03
2019-04-06T23:10:36.183Z,40.97
2019-04-06T23:13:05.853Z,39.87
2019-04-06T23:15:35.475Z,41.67
2019-04-06T23:18:05.041Z,41.87
2019-04-06T23:20:35.166Z,38.43
2019-04-06T23:23:04.953Z,40.53
2019-04-06T23:25:36.013Z,41.13
2019-04-06T23:28:05.862Z,40.43
2019-04-06T23:30:35.515Z,39.77
2019-04-06T23:33:05.254Z,38.37
2019-04-06T23:35:34.917Z,37.47
2019-04-06T23:38:05.691Z,37.87
2019-04-06T23:40:35.307Z,41.13
2019-04-06T23:43:04.862Z,39.90
2019-04-06T23:45:34.431Z,37.80
2019-04-06T23:48:04.394Z,37.30
2019-04-06T23:50:34.599Z,35.30
2019-04-06T23:53:04.592Z,36.37
2019-04-06T23:55:34.326Z,33.53
2019-04-06T23:58:03.910Z,40.03
